sensor_id;sensor_type;location;lat;lon;timestamp;pressure;altitude;pressure_sealevel;temperature;humidity
48077;BME280;33854;57.708;12.008;2022-10-23T00:02:00;100880.63;;;9.53;100.00
48077;BME280;33854;57.708;12.008;2022-10-23T00:04:27;100892.72;;;9.55;100.00
48077;BME280;33854;57.708;12.008;2022-10-23T00:06:53;100887.66;;;9.51;100.00
48077;BME280;33854;57.708;12.008;2022-10-23T00:09:21;100896.00;;;9.59;100.00
48077;BME280;33854;57.708;12.008;2022-10-23T00:11:47;100898.81;;;9.54;100.00
48077;BME280;33854;57.708;12.008;2022-10-23T00:14:16;100900.34;;;9.60;100.00
48077;BME280;33854;57.708;12.008;2022-10-23T00:16:42;100905.47;;;9.61;100.00
48077;BME280;33854;57.708;12.008;2022-10-23T00:19:07;100901.91;;;9.64;100.00
48077;BME280;33854;57.708;12.008;2022-10-23T00:21:33;100896.75;;;9.62;100.00
48077;BME280;33854;57.708;12.008;2022-10-23T00:23:58;100903.72;;;9.62;100.00
48077;BME280;33854;57.708;12.008;2022-10-23T00:26:24;100888.41;;;9.54;100.00
48077;BME280;33854;57.708;12.008;2022-10-23T00:28:51;100902.81;;;9.63;100.00
48077;BME280;33854;57.708;12.008;2022-10-23T00:31:18;100885.66;;;9.57;100.00
48077;BME280;33854;57.708;12.008;2022-10-23T00:33:44;100903.66;;;9.63;100.00
48077;BME280;33854;57.708;12.008;2022-10-23T00:36:12;100894.34;;;9.58;100.00
48077;BME280;33854;57.708;12.008;2022-10-23T00:38:38;100901.91;;;9.64;100.00
48077;BME280;33854;57.708;12.008;2022-10-23T00:41:06;100896.72;;;9.64;100.00
48077;BME280;33854;57.708;12.008;2022-10-23T00:43:33;100898.38;;;9.65;100.00
48077;BME280;33854;57.708;12.008;2022-10-23T00:45:58;100884.56;;;9.63;100.00
48077;BME280;33854;57.708;12.008;2022-10-23T00:48:27;100883.78;;;9.61;100.00
48077;BME280;33854;57.708;12.008;2022-10-23T00:50:53;100899.19;;;9.67;100.00
48077;BME280;33854;57.708;12.008;2022-10-23T00:53:19;100894.75;;;9.69;100.00
48077;BME280;33854;57.708;12.008;2022-10-23T00:55:46;100889.47;;;9.70;100.00
48077;BME280;33854;57.708;12.008;2022-10-23T00:58:17;100883.41;;;9.70;100.00
48077;BME280;33854;57.708;12.008;2022-10-23T01:00:51;100888.56;;;9.71;100.00
48077;BME280;33854;57.708;12.008;2022-10-23T01:03:19;100870.44;;;9.68;100.00
48077;BME280;33854;57.708;12.008;2022-10-23T01:05:49;100883.16;;;9.76;100.00
48077;BME280;33854;57.708;12.008;2022-10-23T01:08:25;100872.84;;;9.73;100.00
48077;BME280;33854;57.708;12.008;2022-10-23T01:14:00;100874.25;;;9.82;100.00
48077;BME280;33854;57.708;12.008;2022-10-23T01:16:45;100859.53;;;9.81;100.00
48077;BME280;33854;57.708;12.008;2022-10-23T01:19:20;100857.84;;;9.80;100.00
48077;BME280;33854;57.708;12.008;2022-10-23T01:21:53;100865.47;;;9.84;100.00
48077;BME280;33854;57.708;12.008;2022-10-23T01:27:23;100866.31;;;9.85;100.00
48077;BME280;33854;57.708;12.008;2022-10-23T01:29:58;100864.56;;;9.85;100.00
48077;BME280;33854;57.708;12.008;2022-10-23T01:32:51;100867.16;;;9.85;100.00
48077;BME280;33854;57.708;12.008;2022-10-23T01:35:24;100868.00;;;9.86;100.00
48077;BME280;33854;57.708;12.008;2022-10-23T01:38:24;100868.88;;;9.86;100.00
48077;BME280;33854;57.708;12.008;2022-10-23T01:41:01;100859.34;;;9.85;100.00
48077;BME280;33854;57.708;12.008;2022-10-23T01:43:37;100856.72;;;9.85;100.00
48077;BME280;33854;57.708;12.008;2022-10-23T01:46:08;100849.69;;;9.87;100.00
48077;BME280;33854;57.708;12.008;2022-10-23T01:48:35;100836.97;;;9.80;100.00
48077;BME280;33854;57.708;12.008;2022-10-23T01:51:06;100842.72;;;9.88;100.00
48077;BME280;33854;57.708;12.008;2022-10-23T01:53:36;100830.78;;;9.82;100.00
48077;BME280;33854;57.708;12.008;2022-10-23T01:56:09;100831.41;;;9.89;100.00
48077;BME280;33854;57.708;12.008;2022-10-23T01:58:35;100777.44;;;9.91;100.00
48077;BME280;33854;57.708;12.008;2022-10-23T02:01:03;100727.16;;;9.87;100.00
48077;BME280;33854;57.708;12.008;2022-10-23T02:03:32;100728.09;;;9.86;100.00
48077;BME280;33854;57.708;12.008;2022-10-23T02:05:59;100728.88;;;9.88;100.00
48077;BME280;33854;57.708;12.008;2022-10-23T02:08:25;100722.13;;;9.84;100.00
48077;BME280;33854;57.708;12.008;2022-10-23T02:11:03;100718.66;;;9.84;100.00
48077;BME280;33854;57.708;12.008;2022-10-23T02:13:44;100721.97;;;9.87;100.00
48077;BME280;33854;57.708;12.008;2022-10-23T02:19:18;100721.91;;;9.89;100.00
48077;BME280;33854;57.708;12.008;2022-10-23T02:21:55;100720.06;;;9.91;100.00
48077;BME280;33854;57.708;12.008;2022-10-23T02:24:31;100717.41;;;9.92;100.00
48077;BME280;33854;57.708;12.008;2022-10-23T02:27:02;100707.13;;;9.89;100.00
48077;BME280;33854;57.708;12.008;2022-10-23T02:29:39;100707.84;;;9.93;100.00
48077;BME280;33854;57.708;12.008;2022-10-23T02:32:07;100700.06;;;9.91;100.00
48077;BME280;33854;57.708;12.008;2022-10-23T02:34:34;100693.03;;;9.93;100.00
48077;BME280;33854;57.708;12.008;2022-10-23T02:36:59;100684.31;;;9.94;100.00
48077;BME280;33854;57.708;12.008;2022-10-23T02:39:26;100691.22;;;9.95;100.00
48077;BME280;33854;57.708;12.008;2022-10-23T02:42:53;100675.56;;;9.95;100.00
48077;BME280;33854;57.708;12.008;2022-10-23T02:47:50;100655.56;;;9.96;100.00
48077;BME280;33854;57.708;12.008;2022-10-23T02:53:31;100631.19;;;9.97;100.00
48077;BME280;33854;57.708;12.008;2022-10-23T02:59:37;100610.19;;;10.00;100.00
48077;BME280;33854;57.708;12.008;2022-10-23T03:02:07;100604.13;;;9.99;100.00
48077;BME280;33854;57.708;12.008;2022-10-23T03:04:34;100588.47;;;9.99;100.00
48077;BME280;33854;57.708;12.008;2022-10-23T03:07:02;100573.91;;;9.95;100.00
48077;BME280;33854;57.708;12.008;2022-10-23T03:09:27;100577.00;;;10.03;100.00
48077;BME280;33854;57.708;12.008;2022-10-23T03:11:53;100573.31;;;10.07;100.00
48077;BME280;33854;57.708;12.008;2022-10-23T03:14:19;100553.44;;;10.05;100.00
48077;BME280;33854;57.708;12.008;2022-10-23T03:16:44;100565.44;;;10.09;100.00
48077;BME280;33854;57.708;12.008;2022-10-23T03:19:13;100562.75;;;10.10;100.00
48077;BME280;33854;57.708;12.008;2022-10-23T03:21:38;100561.94;;;10.10;100.00
48077;BME280;33854;57.708;12.008;2022-10-23T03:24:03;100566.22;;;10.11;100.00
48077;BME280;33854;57.708;12.008;2022-10-23T03:26:29;100558.31;;;10.12;100.00
48077;BME280;33854;57.708;12.008;2022-10-23T03:28:55;100552.22;;;10.13;100.00
48077;BME280;33854;57.708;12.008;2022-10-23T03:31:20;100540.06;;;10.12;100.00
48077;BME280;33854;57.708;12.008;2022-10-23T03:33:46;100535.75;;;10.13;100.00
48077;BME280;33854;57.708;12.008;2022-10-23T03:36:11;100526.13;;;10.13;100.00
48077;BME280;33854;57.708;12.008;2022-10-23T03:38:36;100517.41;;;10.14;100.00
48077;BME280;33854;57.708;12.008;2022-10-23T03:41:02;100496.53;;;10.14;100.00
48077;BME280;33854;57.708;12.008;2022-10-23T03:43:27;100473.34;;;10.08;100.00
48077;BME280;33854;57.708;12.008;2022-10-23T03:45:55;100462.06;;;10.08;100.00
48077;BME280;33854;57.708;12.008;2022-10-23T03:48:21;100448.09;;;10.09;100.00
48077;BME280;33854;57.708;12.008;2022-10-23T03:50:48;100455.72;;;10.13;100.00
48077;BME280;33854;57.708;12.008;2022-10-23T03:53:13;100451.31;;;10.15;100.00
48077;BME280;33854;57.708;12.008;2022-10-23T03:55:38;100445.16;;;10.16;100.00
48077;BME280;33854;57.708;12.008;2022-10-23T03:58:04;100434.72;;;10.16;100.00
48077;BME280;33854;57.708;12.008;2022-10-23T04:00:29;100439.78;;;10.19;100.00
48077;BME280;33854;57.708;12.008;2022-10-23T04:02:54;100434.56;;;10.19;100.00
48077;BME280;33854;57.708;12.008;2022-10-23T04:05:20;100423.22;;;10.20;100.00
48077;BME280;33854;57.708;12.008;2022-10-23T04:07:45;100424.00;;;10.22;100.00
48077;BME280;33854;57.708;12.008;2022-10-23T04:10:10;100413.56;;;10.22;100.00
48077;BME280;33854;57.708;12.008;2022-10-23T04:12:36;100414.31;;;10.24;100.00
48077;BME280;33854;57.708;12.008;2022-10-23T04:15:01;100405.81;;;10.21;100.00
48077;BME280;33854;57.708;12.008;2022-10-23T04:17:27;100415.97;;;10.27;100.00
48077;BME280;33854;57.708;12.008;2022-10-23T04:19:52;100405.59;;;10.25;100.00
48077;BME280;33854;57.708;12.008;2022-10-23T04:22:18;100401.97;;;10.28;100.00
48077;BME280;33854;57.708;12.008;2022-10-23T04:24:43;100390.47;;;10.32;100.00
48077;BME280;33854;57.708;12.008;2022-10-23T04:27:11;100385.16;;;10.34;100.00
48077;BME280;33854;57.708;12.008;2022-10-23T04:29:37;100373.94;;;10.33;100.00
48077;BME280;33854;57.708;12.008;2022-10-23T04:32:02;100373.69;;;10.38;100.00
48077;BME280;33854;57.708;12.008;2022-10-23T04:34:28;100371.06;;;10.38;100.00
48077;BME280;33854;57.708;12.008;2022-10-23T04:36:53;100367.56;;;10.39;100.00
48077;BME280;33854;57.708;12.008;2022-10-23T04:39:18;100361.34;;;10.41;100.00
48077;BME280;33854;57.708;12.008;2022-10-23T04:41:44;100358.72;;;10.41;100.00
48077;BME280;33854;57.708;12.008;2022-10-23T04:44:09;100351.66;;;10.43;100.00
48077;BME280;33854;57.708;12.008;2022-10-23T04:46:35;100355.09;;;10.44;100.00
48077;BME280;33854;57.708;12.008;2022-10-23T04:49:00;100352.34;;;10.47;100.00
48077;BME280;33854;57.708;12.008;2022-10-23T04:51:25;100355.72;;;10.49;100.00
48077;BME280;33854;57.708;12.008;2022-10-23T04:53:51;100355.66;;;10.50;100.00
48077;BME280;33854;57.708;12.008;2022-10-23T04:56:16;100351.56;;;10.45;100.00
48077;BME280;33854;57.708;12.008;2022-10-23T04:58:42;100344.41;;;10.48;100.00
48077;BME280;33854;57.708;12.008;2022-10-23T05:01:08;100344.19;;;10.53;100.00
48077;BME280;33854;57.708;12.008;2022-10-23T05:03:35;100337.88;;;10.57;100.00
48077;BME280;33854;57.708;12.008;2022-10-23T05:06:00;100342.94;;;10.60;100.00
48077;BME280;33854;57.708;12.008;2022-10-23T05:08:26;100337.88;;;10.57;100.00
48077;BME280;33854;57.708;12.008;2022-10-23T05:10:51;100339.41;;;10.61;100.00
48077;BME280;33854;57.708;12.008;2022-10-23T05:13:18;100338.31;;;10.65;100.00
48077;BME280;33854;57.708;12.008;2022-10-23T05:15:48;100332.19;;;10.66;100.00
48077;BME280;33854;57.708;12.008;2022-10-23T05:18:31;100355.50;;;10.69;100.00
48077;BME280;33854;57.708;12.008;2022-10-23T05:21:28;100360.91;;;10.66;100.00
48077;BME280;33854;57.708;12.008;2022-10-23T05:23:53;100379.75;;;10.71;100.00
48077;BME280;33854;57.708;12.008;2022-10-23T05:26:18;100380.59;;;10.71;100.00
48077;BME280;33854;57.708;12.008;2022-10-23T05:28:44;100408.31;;;10.74;100.00
48077;BME280;33854;57.708;12.008;2022-10-23T05:31:09;100448.78;;;10.65;100.00
48077;BME280;33854;57.708;12.008;2022-10-23T05:33:36;100491.63;;;10.78;100.00
48077;BME280;33854;57.708;12.008;2022-10-23T05:36:02;100500.38;;;10.77;100.00
48077;BME280;33854;57.708;12.008;2022-10-23T05:38:31;100489.22;;;10.74;100.00
48077;BME280;33854;57.708;12.008;2022-10-23T05:40:57;100511.34;;;10.84;100.00
48077;BME280;33854;57.708;12.008;2022-10-23T05:43:22;100507.66;;;10.88;100.00
48077;BME280;33854;57.708;12.008;2022-10-23T05:45:48;100503.66;;;10.98;100.00
48077;BME280;33854;57.708;12.008;2022-10-23T05:48:14;100512.19;;;11.02;100.00
48077;BME280;33854;57.708;12.008;2022-10-23T05:50:40;100520.69;;;11.05;100.00
48077;BME280;33854;57.708;12.008;2022-10-23T05:53:05;100515.31;;;11.08;100.00
48077;BME280;33854;57.708;12.008;2022-10-23T05:55:30;100514.25;;;11.12;100.00
48077;BME280;33854;57.708;12.008;2022-10-23T05:57:57;100525.28;;;11.17;100.00
48077;BME280;33854;57.708;12.008;2022-10-23T06:00:22;100525.81;;;11.24;100.00
48077;BME280;33854;57.708;12.008;2022-10-23T06:02:47;100524.72;;;11.28;100.00
48077;BME280;33854;57.708;12.008;2022-10-23T06:05:13;100590.88;;;11.28;100.00
48077;BME280;33854;57.708;12.008;2022-10-23T06:07:38;100490.22;;;11.38;100.00
48077;BME280;33854;57.708;12.008;2022-10-23T06:10:05;100504.13;;;11.39;100.00
48077;BME280;33854;57.708;12.008;2022-10-23T06:12:30;100513.63;;;11.40;100.00
48077;BME280;33854;57.708;12.008;2022-10-23T06:14:56;100517.19;;;11.39;100.00
48077;BME280;33854;57.708;12.008;2022-10-23T06:17:21;100508.81;;;11.32;100.00
48077;BME280;33854;57.708;12.008;2022-10-23T06:19:47;100515.06;;;11.45;100.00
48077;BME280;33854;57.708;12.008;2022-10-23T06:22:12;100521.09;;;11.48;100.00
48077;BME280;33854;57.708;12.008;2022-10-23T06:24:37;100510.53;;;11.49;100.00
48077;BME280;33854;57.708;12.008;2022-10-23T06:27:03;100520.13;;;11.49;100.00
48077;BME280;33854;57.708;12.008;2022-10-23T06:29:29;100519.13;;;11.51;100.00
48077;BME280;33854;57.708;12.008;2022-10-23T06:31:54;100517.53;;;11.49;100.00
48077;BME280;33854;57.708;12.008;2022-10-23T06:34:20;100519.22;;;11.50;100.00
48077;BME280;33854;57.708;12.008;2022-10-23T06:36:45;100509.69;;;11.49;100.00
48077;BME280;33854;57.708;12.008;2022-10-23T06:39:10;100510.53;;;11.49;100.00
48077;BME280;33854;57.708;12.008;2022-10-23T06:41:36;100504.56;;;11.47;100.00
48077;BME280;33854;57.708;12.008;2022-10-23T06:44:03;100502.63;;;11.51;100.00
48077;BME280;33854;57.708;12.008;2022-10-23T06:46:28;100500.03;;;11.51;100.00
48077;BME280;33854;57.708;12.008;2022-10-23T06:48:57;100489.56;;;11.51;100.00
48077;BME280;33854;57.708;12.008;2022-10-23T06:51:22;100502.53;;;11.52;100.00
48077;BME280;33854;57.708;12.008;2022-10-23T06:53:48;100497.41;;;11.51;100.00
48077;BME280;33854;57.708;12.008;2022-10-23T06:56:14;100488.63;;;11.52;100.00
48077;BME280;33854;57.708;12.008;2022-10-23T06:58:39;100482.66;;;11.50;100.00
48077;BME280;33854;57.708;12.008;2022-10-23T07:01:08;100487.53;;;11.56;100.00
48077;BME280;33854;57.708;12.008;2022-10-23T07:03:35;100483.22;;;11.55;100.00
48077;BME280;33854;57.708;12.008;2022-10-23T07:06:02;100478.16;;;11.52;100.00
48077;BME280;33854;57.708;12.008;2022-10-23T07:08:28;100483.16;;;11.56;100.00
48077;BME280;33854;57.708;12.008;2022-10-23T07:10:53;100480.72;;;11.53;100.00
48077;BME280;33854;57.708;12.008;2022-10-23T07:13:19;100481.38;;;11.57;100.00
48077;BME280;33854;57.708;12.008;2022-10-23T07:15:44;100476.25;;;11.55;100.00
48077;BME280;33854;57.708;12.008;2022-10-23T07:18:09;100477.25;;;11.53;100.00
48077;BME280;33854;57.708;12.008;2022-10-23T07:20:39;100477.94;;;11.56;100.00
48077;BME280;33854;57.708;12.008;2022-10-23T07:23:05;100478.84;;;11.55;100.00
48077;BME280;33854;57.708;12.008;2022-10-23T07:25:30;100478.84;;;11.55;100.00
48077;BME280;33854;57.708;12.008;2022-10-23T07:27:56;100478.75;;;11.57;100.00
48077;BME280;33854;57.708;12.008;2022-10-23T07:30:22;100474.38;;;11.57;100.00
48077;BME280;33854;57.708;12.008;2022-10-23T07:32:48;100462.50;;;11.52;100.00
48077;BME280;33854;57.708;12.008;2022-10-23T07:35:13;100478.59;;;11.60;100.00
48077;BME280;33854;57.708;12.008;2022-10-23T07:37:40;100468.06;;;11.61;100.00
48077;BME280;33854;57.708;12.008;2022-10-23T07:40:06;100473.97;;;11.65;100.00
48077;BME280;33854;57.708;12.008;2022-10-23T07:42:31;100460.28;;;11.60;100.00
48077;BME280;33854;57.708;12.008;2022-10-23T07:44:57;100477.34;;;11.67;100.00
48077;BME280;33854;57.708;12.008;2022-10-23T07:47:22;100475.59;;;11.67;100.00
48077;BME280;33854;57.708;12.008;2022-10-23T07:49:48;100467.22;;;11.61;100.00
48077;BME280;33854;57.708;12.008;2022-10-23T07:52:14;100477.22;;;11.70;100.00
48077;BME280;33854;57.708;12.008;2022-10-23T07:54:39;100471.50;;;11.79;100.00
48077;BME280;33854;57.708;12.008;2022-10-23T07:57:04;100461.28;;;11.90;100.00
48077;BME280;33854;57.708;12.008;2022-10-23T07:59:34;100444.00;;;11.87;100.00
48077;BME280;33854;57.708;12.008;2022-10-23T08:01:59;100447.59;;;12.00;100.00
48077;BME280;33854;57.708;12.008;2022-10-23T08:04:25;100432.31;;;12.09;100.00
48077;BME280;33854;57.708;12.008;2022-10-23T08:06:50;100415.78;;;12.08;100.00
48077;BME280;33854;57.708;12.008;2022-10-23T08:09:16;100408.94;;;12.06;100.00
48077;BME280;33854;57.708;12.008;2022-10-23T08:11:42;100385.09;;;11.96;100.00
48077;BME280;33854;57.708;12.008;2022-10-23T08:14:08;100376.31;;;11.97;100.00
48077;BME280;33854;57.708;12.008;2022-10-23T08:16:36;100369.59;;;11.93;100.00
48077;BME280;33854;57.708;12.008;2022-10-23T08:19:05;100354.56;;;11.96;100.00
48077;BME280;33854;57.708;12.008;2022-10-23T08:21:31;100342.59;;;11.92;100.00
48077;BME280;33854;57.708;12.008;2022-10-23T08:23:57;100318.47;;;11.87;100.00
48077;BME280;33854;57.708;12.008;2022-10-23T08:26:24;100321.13;;;12.02;100.00
48077;BME280;33854;57.708;12.008;2022-10-23T08:28:53;100311.59;;;12.00;100.00
48077;BME280;33854;57.708;12.008;2022-10-23T08:31:19;100290.09;;;11.95;100.00
48077;BME280;33854;57.708;12.008;2022-10-23T08:33:45;100287.03;;;12.03;100.00
48077;BME280;33854;57.708;12.008;2022-10-23T08:38:44;100267.69;;;12.06;100.00
48077;BME280;33854;57.708;12.008;2022-10-23T08:41:36;100265.94;;;12.06;100.00
48077;BME280;33854;57.708;12.008;2022-10-23T08:46:41;100235.88;;;12.13;100.00
48077;BME280;33854;57.708;12.008;2022-10-23T08:49:22;100225.59;;;12.10;100.00
48077;BME280;33854;57.708;12.008;2022-10-23T08:51:53;100202.25;;;12.07;100.00
48077;BME280;33854;57.708;12.008;2022-10-23T08:54:25;100187.03;;;12.14;100.00
48077;BME280;33854;57.708;12.008;2022-10-23T08:56:57;100171.50;;;12.11;100.00
48077;BME280;33854;57.708;12.008;2022-10-23T08:59:34;100171.03;;;12.18;100.00
48077;BME280;33854;57.708;12.008;2022-10-23T09:04:32;100174.00;;;12.26;100.00
48077;BME280;33854;57.708;12.008;2022-10-23T09:12:23;100150.63;;;12.37;100.00
48077;BME280;33854;57.708;12.008;2022-10-23T09:17:53;100125.13;;;12.41;100.00
48077;BME280;33854;57.708;12.008;2022-10-23T09:22:56;100071.09;;;12.40;100.00
48077;BME280;33854;57.708;12.008;2022-10-23T09:25:25;100058.00;;;12.40;100.00
48077;BME280;33854;57.708;12.008;2022-10-23T09:27:56;100034.13;;;12.32;100.00
48077;BME280;33854;57.708;12.008;2022-10-23T09:32:56;100044.53;;;12.46;100.00
48077;BME280;33854;57.708;12.008;2022-10-23T09:35:23;100072.47;;;12.45;100.00
48077;BME280;33854;57.708;12.008;2022-10-23T09:37:49;100081.75;;;12.51;100.00
48077;BME280;33854;57.708;12.008;2022-10-23T09:40:41;100093.94;;;12.65;100.00
48077;BME280;33854;57.708;12.008;2022-10-23T09:43:16;100097.22;;;12.68;100.00
48077;BME280;33854;57.708;12.008;2022-10-23T09:45:42;100116.06;;;12.73;100.00
48077;BME280;33854;57.708;12.008;2022-10-23T09:48:17;100137.22;;;12.70;100.00
48077;BME280;33854;57.708;12.008;2022-10-23T09:53:36;100177.56;;;12.53;100.00
48077;BME280;33854;57.708;12.008;2022-10-23T09:56:06;100216.50;;;12.58;100.00
48077;BME280;33854;57.708;12.008;2022-10-23T09:58:38;100252.88;;;12.63;100.00
48077;BME280;33854;57.708;12.008;2022-10-23T10:01:28;100322.25;;;12.55;100.00
48077;BME280;33854;57.708;12.008;2022-10-23T10:03:54;100366.56;;;12.58;100.00
48077;BME280;33854;57.708;12.008;2022-10-23T10:06:29;100416.78;;;12.65;100.00
48077;BME280;33854;57.708;12.008;2022-10-23T10:09:01;100452.28;;;12.55;100.00
48077;BME280;33854;57.708;12.008;2022-10-23T10:11:56;100498.91;;;12.48;100.00
48077;BME280;33854;57.708;12.008;2022-10-23T10:17:14;100570.19;;;12.53;100.00
48077;BME280;33854;57.708;12.008;2022-10-23T10:22:39;100650.72;;;12.48;100.00
48077;BME280;33854;57.708;12.008;2022-10-23T10:28:06;100713.28;;;12.53;100.00
48077;BME280;33854;57.708;12.008;2022-10-23T10:33:48;100786.00;;;12.48;100.00
48077;BME280;33854;57.708;12.008;2022-10-23T10:39:00;100862.81;;;12.47;100.00
48077;BME280;33854;57.708;12.008;2022-10-23T10:44:29;100935.19;;;12.48;100.00
48077;BME280;33854;57.708;12.008;2022-10-23T10:46:59;100964.97;;;12.45;100.00
48077;BME280;33854;57.708;12.008;2022-10-23T10:55:37;100974.16;;;12.54;100.00
48077;BME280;33854;57.708;12.008;2022-10-23T10:58:19;100978.69;;;12.50;100.00
48077;BME280;33854;57.708;12.008;2022-10-23T11:00:57;100974.16;;;12.54;100.00
48077;BME280;33854;57.708;12.008;2022-10-23T11:03:35;100965.81;;;12.46;100.00
48077;BME280;33854;57.708;12.008;2022-10-23T11:06:05;100960.75;;;12.43;100.00
48077;BME280;33854;57.708;12.008;2022-10-23T11:08:37;100964.00;;;12.48;100.00
48077;BME280;33854;57.708;12.008;2022-10-23T11:11:25;100963.00;;;12.50;100.00
48077;BME280;33854;57.708;12.008;2022-10-23T11:13:53;100954.19;;;12.51;100.00
48077;BME280;33854;57.708;12.008;2022-10-23T11:16:27;100959.28;;;12.54;100.00
48077;BME280;33854;57.708;12.008;2022-10-23T11:19:04;100950.06;;;12.47;100.00
48077;BME280;33854;57.708;12.008;2022-10-23T11:21:40;100953.38;;;12.51;100.00
48077;BME280;33854;57.708;12.008;2022-10-23T11:37:40;100934.50;;;12.62;100.00
48077;BME280;33854;57.708;12.008;2022-10-23T11:45:34;100927.19;;;12.68;100.00
48077;BME280;33854;57.708;12.008;2022-10-23T11:50:33;100926.31;;;12.68;100.00
48077;BME280;33854;57.708;12.008;2022-10-23T11:53:09;100919.16;;;12.71;100.00
48077;BME280;33854;57.708;12.008;2022-10-23T11:58:45;100900.91;;;12.70;100.00
48077;BME280;33854;57.708;12.008;2022-10-23T12:01:42;100907.00;;;12.70;100.00
48077;BME280;33854;57.708;12.008;2022-10-23T12:09:17;100890.53;;;12.68;100.00
48077;BME280;33854;57.708;12.008;2022-10-23T12:11:47;100888.56;;;12.72;100.00
48077;BME280;33854;57.708;12.008;2022-10-23T12:14:26;100897.53;;;12.68;100.00
48077;BME280;33854;57.708;12.008;2022-10-23T12:16:52;100889.22;;;12.60;100.00
48077;BME280;33854;57.708;12.008;2022-10-23T12:19:21;100898.53;;;12.65;100.00
48077;BME280;33854;57.708;12.008;2022-10-23T12:21:50;100886.97;;;12.69;100.00
48077;BME280;33854;57.708;12.008;2022-10-23T12:27:15;100872.81;;;12.56;100.00
48077;BME280;33854;57.708;12.008;2022-10-23T12:30:13;100868.44;;;12.56;100.00
48077;BME280;33854;57.708;12.008;2022-10-23T12:33:10;100879.53;;;12.44;100.00
48077;BME280;33854;57.708;12.008;2022-10-23T12:35:48;100872.75;;;12.40;100.00
48077;BME280;33854;57.708;12.008;2022-10-23T12:38:19;100871.09;;;12.39;100.00
48077;BME280;33854;57.708;12.008;2022-10-23T12:40:54;100869.38;;;12.38;100.00
48077;BME280;33854;57.708;12.008;2022-10-23T12:43:25;100875.69;;;12.34;100.00
48077;BME280;33854;57.708;12.008;2022-10-23T12:45:53;100884.63;;;12.30;100.00
48077;BME280;33854;57.708;12.008;2022-10-23T12:48:21;100882.16;;;12.27;100.00
48077;BME280;33854;57.708;12.008;2022-10-23T12:50:48;100879.69;;;12.24;100.00
48077;BME280;33854;57.708;12.008;2022-10-23T12:53:16;100897.25;;;12.22;100.00
48077;BME280;33854;57.708;12.008;2022-10-23T12:55:50;100878.69;;;12.10;100.00
48077;BME280;33854;57.708;12.008;2022-10-23T12:58:29;100895.25;;;12.10;100.00
48077;BME280;33854;57.708;12.008;2022-10-23T13:00:58;100883.22;;;12.06;100.00
48077;BME280;33854;57.708;12.008;2022-10-23T13:03:25;100892.03;;;12.05;100.00
48077;BME280;33854;57.708;12.008;2022-10-23T13:05:52;100886.94;;;12.02;100.00
48077;BME280;33854;57.708;12.008;2022-10-23T13:08:20;100884.63;;;11.96;100.00
48077;BME280;33854;57.708;12.008;2022-10-23T13:10:47;100883.53;;;12.00;100.00
48077;BME280;33854;57.708;12.008;2022-10-23T13:13:12;100902.47;;;12.05;100.00
48077;BME280;33854;57.708;12.008;2022-10-23T13:15:43;100887.84;;;12.01;100.00
48077;BME280;33854;57.708;12.008;2022-10-23T13:18:10;100885.38;;;11.98;100.00
48077;BME280;33854;57.708;12.008;2022-10-23T13:21:01;100900.69;;;12.06;100.00
48077;BME280;33854;57.708;12.008;2022-10-23T13:23:30;100896.16;;;12.09;100.00
48077;BME280;33854;57.708;12.008;2022-10-23T13:25:57;100899.88;;;12.05;100.00
48077;BME280;33854;57.708;12.008;2022-10-23T13:28:41;100885.22;;;12.01;100.00
48077;BME280;33854;57.708;12.008;2022-10-23T13:33:44;100899.88;;;12.05;100.00
48077;BME280;33854;57.708;12.008;2022-10-23T13:41:05;100891.47;;;11.98;100.00
48077;BME280;33854;57.708;12.008;2022-10-23T13:43:35;100889.47;;;12.04;100.00
48077;BME280;33854;57.708;12.008;2022-10-23T13:46:01;100894.78;;;12.02;100.00
48077;BME280;33854;57.708;12.008;2022-10-23T13:48:27;100892.94;;;12.04;100.00
48077;BME280;33854;57.708;12.008;2022-10-23T13:50:53;100887.84;;;12.01;100.00
48077;BME280;33854;57.708;12.008;2022-10-23T13:53:18;100881.00;;;11.98;100.00
48077;BME280;33854;57.708;12.008;2022-10-23T13:55:46;100891.03;;;12.08;100.00
48077;BME280;33854;57.708;12.008;2022-10-23T13:58:13;100892.03;;;12.05;100.00
48077;BME280;33854;57.708;12.008;2022-10-23T14:00:38;100883.38;;;12.03;100.00
48077;BME280;33854;57.708;12.008;2022-10-23T14:03:04;100878.38;;;11.98;100.00
48077;BME280;33854;57.708;12.008;2022-10-23T14:05:29;100880.91;;;12.00;100.00
48077;BME280;33854;57.708;12.008;2022-10-23T14:07:55;100880.84;;;12.02;100.00
48077;BME280;33854;57.708;12.008;2022-10-23T14:10:20;100875.22;;;11.92;100.00
48077;BME280;33854;57.708;12.008;2022-10-23T14:12:47;100884.38;;;12.00;100.00
48077;BME280;33854;57.708;12.008;2022-10-23T14:15:18;100878.28;;;12.00;100.00
48077;BME280;33854;57.708;12.008;2022-10-23T14:17:43;100875.06;;;11.95;100.00
48077;BME280;33854;57.708;12.008;2022-10-23T14:20:09;100867.38;;;11.92;100.00
48077;BME280;33854;57.708;12.008;2022-10-23T14:22:35;100874.38;;;11.91;100.00
48077;BME280;33854;57.708;12.008;2022-10-23T14:25:00;100862.28;;;11.89;100.00
48077;BME280;33854;57.708;12.008;2022-10-23T14:27:25;100862.59;;;11.83;100.00
48077;BME280;33854;57.708;12.008;2022-10-23T14:29:51;100863.53;;;11.82;100.00